createdAt,value
2022-11-18T00:01:15.943Z,0.30
2022-11-18T00:03:44.190Z,0.35
2022-11-18T00:06:14.979Z,0.25
2022-11-18T00:08:42.453Z,0.30
2022-11-18T00:11:36.496Z,0.40
2022-11-18T00:14:20.243Z,0.38
2022-11-18T00:16:55.908Z,0.40
2022-11-18T00:19:28.733Z,0.30
2022-11-18T00:21:56.555Z,0.30
2022-11-18T00:24:56.478Z,0.20
2022-11-18T00:27:24.815Z,0.30
2022-11-18T00:30:19.162Z,0.32
2022-11-18T00:33:11.900Z,0.20
2022-11-18T00:36:07.473Z,0.20
2022-11-18T00:38:56.687Z,0.30
2022-11-18T01:03:46.456Z,0.30
2022-11-18T01:06:28.184Z,0.28
2022-11-18T01:09:06.678Z,0.65
2022-11-18T01:12:35.692Z,0.30
2022-11-18T01:20:53.839Z,0.43
2022-11-18T01:25:34.363Z,0.30
2022-11-18T01:26:27.628Z,0.25
2022-11-18T01:29:19.922Z,0.30
2022-11-18T01:32:23.236Z,0.20
2022-11-18T01:35:00.278Z,0.30
2022-11-18T01:38:36.863Z,0.20
2022-11-18T01:41:45.739Z,0.20
2022-11-18T01:52:08.907Z,0.40
2022-11-18T02:07:48.058Z,0.20
2022-11-18T02:10:37.076Z,0.20
2022-11-18T02:13:35.865Z,0.30
2022-11-18T02:16:58.935Z,0.20
2022-11-18T02:21:03.074Z,0.20
2022-11-18T02:23:54.526Z,0.20
2022-11-18T02:28:07.222Z,0.20
2022-11-18T02:30:26.997Z,0.20
2022-11-18T02:33:57.073Z,0.20
2022-11-18T02:37:44.043Z,0.30
2022-11-18T02:41:00.585Z,0.30
2022-11-18T02:44:26.101Z,0.20
2022-11-18T02:52:09.333Z,0.22
2022-11-18T03:01:42.331Z,0.10
2022-11-18T03:04:48.395Z,0.20
2022-11-18T03:07:56.017Z,0.20
2022-11-18T03:11:33.783Z,0.28
2022-11-18T03:14:42.920Z,0.20
2022-11-18T03:18:04.748Z,0.20
2022-11-18T03:21:43.023Z,0.20
2022-11-18T03:24:35.300Z,0.30
2022-11-18T03:27:41.460Z,0.30
2022-11-18T03:30:46.498Z,0.38
2022-11-18T03:33:21.827Z,0.40
2022-11-18T03:36:20.118Z,0.30
2022-11-18T03:39:05.744Z,0.30
2022-11-18T03:42:10.834Z,0.20
2022-11-18T03:48:26.520Z,0.30
2022-11-18T03:51:31.245Z,0.30
2022-11-18T03:54:18.512Z,0.40
2022-11-18T03:57:06.561Z,0.30
2022-11-18T03:59:48.966Z,0.30
2022-11-18T04:02:29.944Z,0.30
2022-11-18T04:05:13.453Z,0.20
2022-11-18T04:08:02.590Z,0.30
2022-11-18T04:10:57.405Z,0.40
2022-11-18T04:13:31.241Z,0.20
2022-11-18T04:16:03.713Z,0.30
2022-11-18T04:18:36.995Z,0.20
2022-11-18T04:21:21.744Z,0.20
2022-11-18T04:24:00.992Z,0.50
2022-11-18T04:26:31.942Z,0.25
2022-11-18T04:29:05.252Z,0.32
2022-11-18T04:31:37.269Z,0.30
2022-11-18T04:34:09.765Z,0.20
2022-11-18T04:36:41.999Z,0.30
2022-11-18T04:39:14.877Z,0.28
2022-11-18T04:42:02.672Z,0.40
2022-11-18T04:44:34.941Z,0.20
2022-11-18T04:47:11.468Z,0.40
2022-11-18T04:49:42.059Z,0.52
2022-11-18T04:52:13.654Z,0.20
2022-11-18T04:54:46.862Z,0.40
2022-11-18T04:57:19.754Z,0.30
2022-11-18T04:59:47.163Z,0.28
2022-11-18T05:02:15.757Z,0.20
2022-11-18T05:04:53.668Z,0.30
2022-11-18T05:07:20.998Z,0.30
2022-11-18T05:09:51.510Z,0.20
2022-11-18T05:13:02.096Z,0.20
2022-11-18T05:15:32.535Z,0.20
2022-11-18T05:18:05.621Z,0.30
2022-11-18T05:20:46.894Z,0.20
2022-11-18T05:23:14.062Z,0.32
2022-11-18T05:25:41.229Z,0.20
2022-11-18T05:28:45.834Z,0.30
2022-11-18T05:31:28.096Z,0.30
2022-11-18T05:34:53.385Z,0.20
2022-11-18T05:37:36.119Z,0.40
2022-11-18T05:40:34.814Z,0.40
2022-11-18T05:43:15.936Z,0.30
2022-11-18T05:45:51.896Z,0.22
2022-11-18T05:48:34.623Z,0.40
2022-11-18T05:51:07.141Z,0.30
2022-11-18T05:53:37.128Z,0.30
2022-11-18T05:56:17.198Z,0.40
2022-11-18T05:58:44.369Z,0.32
2022-11-18T06:01:14.656Z,0.25
2022-11-18T06:03:45.553Z,0.32
2022-11-18T06:06:15.564Z,0.50
2022-11-18T06:09:02.877Z,0.38
2022-11-18T06:11:34.449Z,0.20
2022-11-18T06:14:06.736Z,0.45
2022-11-18T06:16:50.412Z,0.43
2022-11-18T06:19:21.513Z,0.20
2022-11-18T06:21:49.290Z,0.20
2022-11-18T06:24:21.581Z,0.30
2022-11-18T06:26:51.846Z,0.25
2022-11-18T06:29:27.295Z,0.30
2022-11-18T06:32:03.660Z,0.30
2022-11-18T06:34:33.640Z,0.30
2022-11-18T06:37:35.678Z,0.30
2022-11-18T06:40:04.151Z,0.20
2022-11-18T06:42:56.474Z,0.20
2022-11-18T06:45:26.128Z,0.40
2022-11-18T06:47:57.859Z,0.38
2022-11-18T06:50:25.299Z,0.40
2022-11-18T06:52:55.847Z,0.43
2022-11-18T06:55:31.736Z,0.30
2022-11-18T06:57:58.840Z,0.32
2022-11-18T07:00:29.122Z,0.40
2022-11-18T07:02:58.200Z,0.60
2022-11-18T07:05:27.922Z,0.40
2022-11-18T07:07:55.375Z,0.50
2022-11-18T07:10:26.053Z,0.50
2022-11-18T07:12:58.165Z,0.32
2022-11-18T07:15:25.572Z,0.30
2022-11-18T07:17:56.810Z,0.50
2022-11-18T07:20:33.370Z,0.40
2022-11-18T07:23:05.369Z,0.40
2022-11-18T07:25:50.359Z,0.38
2022-11-18T07:28:21.131Z,0.40
2022-11-18T07:31:01.003Z,0.38
2022-11-18T07:33:37.717Z,0.40
2022-11-18T07:36:35.570Z,0.30
2022-11-18T07:39:05.444Z,0.47
2022-11-18T07:41:33.819Z,0.40
2022-11-18T07:44:10.943Z,0.30
2022-11-18T07:46:38.258Z,0.45
2022-11-18T07:49:08.927Z,0.40
2022-11-18T07:51:41.769Z,0.30
2022-11-18T07:54:12.046Z,0.30
2022-11-18T07:56:39.758Z,0.30
2022-11-18T07:59:11.339Z,0.50
2022-11-18T08:01:41.386Z,0.40
2022-11-18T08:04:12.649Z,0.30
2022-11-18T08:06:40.863Z,0.40
2022-11-18T08:09:12.371Z,0.25
2022-11-18T08:11:42.273Z,0.40
2022-11-18T08:14:14.625Z,0.50
2022-11-18T08:16:41.879Z,0.50
2022-11-18T08:19:09.310Z,0.40
2022-11-18T08:21:36.794Z,0.40
2022-11-18T08:24:04.069Z,0.35
2022-11-18T08:26:34.760Z,0.60
2022-11-18T08:29:04.452Z,0.40
2022-11-18T08:31:32.066Z,0.50
2022-11-18T08:34:05.248Z,0.50
2022-11-18T08:36:37.313Z,0.40
2022-11-18T08:39:09.662Z,0.60
2022-11-18T08:41:44.043Z,0.50
2022-11-18T08:44:16.669Z,0.40
2022-11-18T08:46:47.706Z,0.40
2022-11-18T08:49:15.325Z,0.52
2022-11-18T08:51:42.724Z,0.45
2022-11-18T08:54:09.908Z,0.40
2022-11-18T08:56:37.029Z,0.38
2022-11-18T08:59:06.929Z,0.32
2022-11-18T09:01:34.636Z,0.40
2022-11-18T09:04:01.683Z,0.80
2022-11-18T09:06:28.682Z,0.40
2022-11-18T09:08:55.802Z,0.60
2022-11-18T09:11:25.480Z,0.50
2022-11-18T09:14:58.329Z,0.40
2022-11-18T09:16:48.463Z,0.30
2022-11-18T09:22:04.866Z,0.60
2022-11-18T09:24:32.489Z,0.30
2022-11-18T09:26:59.522Z,0.60
2022-11-18T09:29:26.706Z,0.60
2022-11-18T09:31:54.617Z,1.00
2022-11-18T09:34:22.506Z,0.60
2022-11-18T09:36:50.237Z,0.77
2022-11-18T09:39:17.506Z,0.80
2022-11-18T09:41:54.208Z,0.60
2022-11-18T09:44:39.774Z,0.50
2022-11-18T09:47:32.385Z,0.57
2022-11-18T09:50:47.160Z,0.50
2022-11-18T09:53:16.864Z,0.40
2022-11-18T09:55:48.648Z,0.47
2022-11-18T09:58:26.450Z,0.60
2022-11-18T10:00:56.647Z,0.63
2022-11-18T10:03:29.804Z,0.63
2022-11-18T10:06:11.780Z,0.40
2022-11-18T10:08:58.499Z,0.68
2022-11-18T10:11:37.274Z,0.65
2022-11-18T10:14:41.378Z,0.52
2022-11-18T10:17:20.607Z,0.45
2022-11-18T10:19:50.579Z,0.63
2022-11-18T10:26:41.267Z,0.60
2022-11-18T10:29:10.884Z,0.60
2022-11-18T10:31:52.760Z,0.47
2022-11-18T10:34:20.644Z,0.40
2022-11-18T10:37:08.288Z,0.30
2022-11-18T10:39:54.419Z,0.40
2022-11-18T10:42:35.482Z,0.40
2022-11-18T10:45:21.596Z,0.50
2022-11-18T10:48:08.463Z,0.60
2022-11-18T10:50:41.571Z,0.50
2022-11-18T10:53:32.285Z,0.60
2022-11-18T10:56:01.192Z,0.65
2022-11-18T10:58:31.142Z,0.70
2022-11-18T11:01:19.448Z,0.60
2022-11-18T11:04:02.203Z,0.75
2022-11-18T11:06:34.916Z,0.55
2022-11-18T11:09:15.324Z,0.77
2022-11-18T11:11:55.882Z,1.00
2022-11-18T11:14:24.477Z,1.08
2022-11-18T11:16:57.981Z,0.77
2022-11-18T11:19:33.127Z,1.75
2022-11-18T11:22:00.320Z,0.80
2022-11-18T11:24:28.528Z,0.77
2022-11-18T11:30:18.162Z,1.38
2022-11-18T11:35:26.345Z,0.40
2022-11-18T11:37:58.760Z,0.80
2022-11-18T11:40:41.040Z,0.60
2022-11-18T11:43:29.980Z,0.50
2022-11-18T11:46:19.162Z,0.43
2022-11-18T11:49:04.055Z,1.10
2022-11-18T11:51:42.943Z,0.90
2022-11-18T11:54:24.759Z,0.80
2022-11-18T11:56:56.033Z,0.47
2022-11-18T11:59:59.750Z,0.50
2022-11-18T12:03:08.799Z,0.70
2022-11-18T12:05:42.356Z,0.40
2022-11-18T12:08:18.175Z,0.60
2022-11-18T12:11:03.787Z,0.50
2022-11-18T12:14:14.374Z,0.68
2022-11-18T12:16:54.006Z,0.90
2022-11-18T12:19:26.327Z,0.82
2022-11-18T12:22:00.952Z,1.00
2022-11-18T12:24:31.432Z,0.90
2022-11-18T12:27:30.799Z,0.95
2022-11-18T12:30:01.702Z,1.20
2022-11-18T12:32:42.573Z,0.70
2022-11-18T12:35:13.159Z,0.80
2022-11-18T12:37:46.136Z,0.50
2022-11-18T12:40:35.107Z,0.68
2022-11-18T12:43:21.306Z,0.80
2022-11-18T12:45:54.246Z,0.60
2022-11-18T12:48:31.591Z,0.60
2022-11-18T12:51:18.753Z,0.65
2022-11-18T12:53:48.263Z,0.90
2022-11-18T12:56:18.287Z,0.90
2022-11-18T12:58:57.326Z,0.68
2022-11-18T13:01:27.246Z,0.70
2022-11-18T13:04:14.765Z,0.95
2022-11-18T13:06:42.725Z,0.60
2022-11-18T13:09:19.587Z,1.08
2022-11-18T13:11:55.406Z,0.82
2022-11-18T13:14:48.140Z,1.00
2022-11-18T13:18:02.547Z,1.00
2022-11-18T13:20:40.613Z,0.93
2022-11-18T13:23:29.263Z,1.10
2022-11-18T13:26:07.936Z,0.90
2022-11-18T13:29:04.371Z,0.88
2022-11-18T13:35:29.401Z,0.70
2022-11-18T13:37:56.277Z,0.77
2022-11-18T13:40:27.552Z,0.70
2022-11-18T13:42:55.261Z,0.85
2022-11-18T13:45:26.561Z,0.88
2022-11-18T13:47:55.945Z,1.15
2022-11-18T13:50:51.265Z,0.90
2022-11-18T13:53:19.148Z,1.00
2022-11-18T13:55:56.957Z,0.60
2022-11-18T13:58:55.811Z,0.63
2022-11-18T14:01:24.011Z,0.80
2022-11-18T14:03:52.876Z,0.80
2022-11-18T14:06:37.208Z,0.68
2022-11-18T14:09:06.043Z,0.88
2022-11-18T14:11:39.328Z,0.75
2022-11-18T14:14:06.968Z,0.70
2022-11-18T14:16:38.318Z,0.70
2022-11-18T14:19:05.492Z,0.88
2022-11-18T14:21:34.999Z,0.60
2022-11-18T14:24:03.238Z,0.80
2022-11-18T14:26:38.231Z,0.65
2022-11-18T14:29:23.546Z,0.50
2022-11-18T14:32:28.819Z,0.77
2022-11-18T14:35:02.066Z,0.60
2022-11-18T14:37:30.515Z,0.60
2022-11-18T14:39:58.489Z,0.40
2022-11-18T14:42:25.491Z,0.57
2022-11-18T14:44:54.888Z,0.40
2022-11-18T14:47:30.232Z,0.57
2022-11-18T14:49:57.205Z,0.52
2022-11-18T14:52:24.338Z,0.40
2022-11-18T14:54:52.796Z,0.70
2022-11-18T14:57:19.795Z,0.47
2022-11-18T14:59:46.894Z,0.50
2022-11-18T15:02:16.878Z,0.40
2022-11-18T15:04:44.142Z,0.60
2022-11-18T15:07:22.728Z,0.60
2022-11-18T15:09:50.928Z,0.68
2022-11-18T15:12:18.043Z,0.50
2022-11-18T15:14:45.024Z,0.50
2022-11-18T15:17:12.870Z,0.60
2022-11-18T15:19:40.848Z,0.70
2022-11-18T15:22:08.529Z,0.70
2022-11-18T15:24:35.514Z,0.50
2022-11-18T15:27:05.815Z,0.65
2022-11-18T15:29:33.032Z,0.55
2022-11-18T15:32:00.261Z,0.60
2022-11-18T15:34:33.445Z,0.60
2022-11-18T15:37:00.477Z,0.55
2022-11-18T15:39:27.375Z,1.02
2022-11-18T15:41:54.379Z,0.60
2022-11-18T15:44:21.625Z,1.30
2022-11-18T15:46:49.533Z,0.57
2022-11-18T15:49:55.118Z,0.80
2022-11-18T15:52:23.402Z,0.65
2022-11-18T15:54:50.371Z,0.40
2022-11-18T15:57:17.367Z,0.50
2022-11-18T15:59:44.572Z,0.45
2022-11-18T16:02:12.025Z,0.50
2022-11-18T16:04:39.238Z,0.70
2022-11-18T16:07:06.638Z,0.50
2022-11-18T16:09:51.854Z,0.50
2022-11-18T16:12:37.254Z,0.60
2022-11-18T16:15:23.379Z,0.55
2022-11-18T16:17:50.477Z,0.80
2022-11-18T16:20:17.874Z,0.77
2022-11-18T16:22:47.672Z,0.75
2022-11-18T16:25:14.894Z,1.23
2022-11-18T16:27:48.207Z,1.15
2022-11-18T16:30:37.197Z,1.08
2022-11-18T16:33:04.722Z,1.10
2022-11-18T16:35:34.470Z,1.10
2022-11-18T16:38:02.192Z,1.63
2022-11-18T16:40:29.684Z,1.23
2022-11-18T16:42:56.694Z,1.20
2022-11-18T16:46:14.534Z,1.40
2022-11-18T16:49:11.422Z,1.20
2022-11-18T16:54:33.871Z,1.30
2022-11-18T16:57:06.547Z,1.27
2022-11-18T16:59:34.127Z,1.55
2022-11-18T17:02:02.430Z,1.60
2022-11-18T17:04:30.622Z,1.70
2022-11-18T17:07:03.302Z,1.60
2022-11-18T17:09:30.595Z,1.33
2022-11-18T17:12:02.350Z,1.80
2022-11-18T17:14:30.014Z,1.52
2022-11-18T17:16:57.710Z,1.75
2022-11-18T17:19:28.079Z,1.98
2022-11-18T17:21:55.058Z,1.90
2022-11-18T17:24:26.838Z,2.58
2022-11-18T17:26:56.567Z,2.15
2022-11-18T17:29:26.191Z,2.90
2022-11-18T17:31:55.891Z,3.50
2022-11-18T17:34:22.919Z,3.40
2022-11-18T17:36:50.579Z,2.85
2022-11-18T17:39:18.911Z,3.90
2022-11-18T17:42:04.707Z,4.40
2022-11-18T17:44:31.882Z,5.63
2022-11-18T17:47:02.832Z,4.85
2022-11-18T17:49:38.853Z,5.70
2022-11-18T17:52:17.699Z,6.32
2022-11-18T17:54:47.991Z,5.50
2022-11-18T17:57:14.914Z,5.72
2022-11-18T17:59:41.966Z,5.13
2022-11-18T18:02:15.067Z,6.40
2022-11-18T18:04:42.173Z,5.82
2022-11-18T18:07:09.221Z,5.60
2022-11-18T18:09:36.308Z,5.90
2022-11-18T18:12:25.975Z,7.38
2022-11-18T18:14:55.928Z,5.97
2022-11-18T18:17:25.678Z,5.47
2022-11-18T18:19:55.994Z,6.53
2022-11-18T18:22:27.720Z,6.82
2022-11-18T18:24:57.520Z,7.50
2022-11-18T18:27:35.771Z,6.70
2022-11-18T18:30:08.604Z,5.50
2022-11-18T18:32:36.202Z,6.03
2022-11-18T18:35:03.569Z,6.35
2022-11-18T18:37:38.242Z,6.45
2022-11-18T18:43:07.256Z,7.20
2022-11-18T18:45:52.891Z,7.35
2022-11-18T18:48:25.581Z,6.90
2022-11-18T18:50:54.863Z,6.97
2022-11-18T18:53:24.931Z,5.78
2022-11-18T18:55:56.354Z,7.90
2022-11-18T18:58:46.701Z,7.45
2022-11-18T19:01:16.019Z,7.13
2022-11-18T19:03:43.744Z,7.10
2022-11-18T19:09:15.598Z,6.40
2022-11-18T19:12:02.130Z,5.97
2022-11-18T19:14:32.103Z,5.93
2022-11-18T19:17:10.802Z,5.95
2022-11-18T19:19:59.530Z,7.20
2022-11-18T19:22:30.473Z,8.85
2022-11-18T19:24:58.296Z,7.30
2022-11-18T19:27:25.912Z,7.65
2022-11-18T19:29:55.805Z,7.63
2022-11-18T19:32:25.479Z,7.43
2022-11-18T19:34:55.026Z,6.28
2022-11-18T19:37:25.316Z,7.78
2022-11-18T19:39:55.145Z,8.15
2022-11-18T19:42:25.148Z,7.28
2022-11-18T19:44:52.519Z,7.70
2022-11-18T19:47:19.574Z,8.50
2022-11-18T19:49:46.705Z,6.90
2022-11-18T19:52:16.867Z,7.78
2022-11-18T19:54:43.924Z,7.82
2022-11-18T19:57:11.051Z,7.70
2022-11-18T19:59:38.097Z,6.55
2022-11-18T20:02:05.711Z,6.60
2022-11-18T20:04:33.032Z,7.45
2022-11-18T20:07:00.273Z,5.95
2022-11-18T20:09:27.405Z,6.18
2022-11-18T20:11:54.949Z,5.88
2022-11-18T20:14:23.875Z,5.45
2022-11-18T20:16:53.928Z,6.00
2022-11-18T20:19:21.175Z,4.30
2022-11-18T20:21:55.116Z,5.63
2022-11-18T20:24:52.733Z,6.72
2022-11-18T20:27:26.889Z,5.43
2022-11-18T20:30:03.200Z,6.82
2022-11-18T20:32:33.923Z,7.47
2022-11-18T20:35:05.024Z,7.28
2022-11-18T20:37:38.027Z,6.50
2022-11-18T20:40:08.156Z,6.60
2022-11-18T20:43:03.812Z,5.93
2022-11-18T20:46:19.859Z,7.40
2022-11-18T20:48:50.111Z,5.53
2022-11-18T20:51:18.921Z,5.22
2022-11-18T20:53:45.902Z,5.15
2022-11-18T20:56:24.028Z,6.47
2022-11-18T20:58:51.217Z,5.70
2022-11-18T21:01:27.088Z,6.63
2022-11-18T21:03:59.568Z,6.95
2022-11-18T21:06:29.782Z,5.72
2022-11-18T21:09:12.539Z,6.22
2022-11-18T21:11:40.092Z,5.25
2022-11-18T21:14:25.356Z,5.10
2022-11-18T21:17:06.557Z,5.25
2022-11-18T21:19:34.032Z,6.68
2022-11-18T21:22:01.195Z,6.63
2022-11-18T21:24:30.323Z,6.43
2022-11-18T21:28:26.311Z,6.50
2022-11-18T21:30:56.169Z,7.05
2022-11-18T21:33:24.229Z,6.45
2022-11-18T21:35:51.621Z,7.07
2022-11-18T21:38:18.771Z,6.35
2022-11-18T21:40:54.612Z,7.03
2022-11-18T21:43:32.844Z,7.32
2022-11-18T21:46:14.428Z,5.85
2022-11-18T21:51:15.004Z,6.95
2022-11-18T21:53:42.288Z,5.85
2022-11-18T21:56:15.124Z,6.38
2022-11-18T21:58:42.764Z,6.95
2022-11-18T22:01:12.864Z,7.00
2022-11-18T22:03:44.728Z,6.38
2022-11-18T22:06:21.848Z,5.57
2022-11-18T22:09:07.623Z,6.65
2022-11-18T22:12:04.642Z,7.72
2022-11-18T22:14:40.084Z,7.65
2022-11-18T22:17:07.746Z,6.97
2022-11-18T22:19:34.847Z,7.80
2022-11-18T22:22:04.577Z,8.32
2022-11-18T22:24:31.727Z,8.38
2022-11-18T22:26:58.901Z,7.68
2022-11-18T22:29:26.264Z,7.88
2022-11-18T22:31:57.127Z,9.10
2022-11-18T22:34:24.654Z,8.43
2022-11-18T22:36:51.549Z,8.48
2022-11-18T22:39:18.915Z,8.80
2022-11-18T22:42:04.744Z,8.43
2022-11-18T22:44:31.852Z,8.77
2022-11-18T22:46:59.041Z,8.40
2022-11-18T22:49:28.591Z,9.27
2022-11-18T22:51:55.553Z,8.23
2022-11-18T22:54:40.733Z,7.82
2022-11-18T22:57:08.915Z,7.80
2022-11-18T22:59:36.121Z,6.68
2022-11-18T23:02:03.165Z,7.03
2022-11-18T23:04:30.142Z,6.63
2022-11-18T23:06:57.097Z,6.70
2022-11-18T23:09:28.779Z,6.45
2022-11-18T23:12:16.657Z,5.78
2022-11-18T23:14:43.727Z,6.28
2022-11-18T23:17:10.954Z,6.28
2022-11-18T23:19:42.012Z,5.65
2022-11-18T23:22:10.119Z,5.60
2022-11-18T23:24:37.141Z,6.80
2022-11-18T23:27:04.276Z,5.60
2022-11-18T23:29:31.326Z,5.15
2022-11-18T23:31:58.308Z,5.20
2022-11-18T23:34:25.349Z,5.32
2022-11-18T23:36:54.963Z,6.82
2022-11-18T23:39:23.419Z,5.25
2022-11-18T23:41:50.403Z,5.35
2022-11-18T23:44:17.388Z,6.47
2022-11-18T23:46:44.325Z,6.80
2022-11-18T23:49:12.100Z,6.85
2022-11-18T23:51:39.039Z,6.35
2022-11-18T23:54:06.044Z,6.82
2022-11-18T23:56:37.753Z,6.30
2022-11-18T23:59:06.562Z,5.57
